M I D A S
Marine Information and Data Acquisition System
Tripno 351 of the Zeeleeuw from 2002-10-29 09:26:45 to 2002-10-29 16:50:00
Back to CruiseResearch ActivitiesStationsMapUnderway DataData graphs

EquipmentUnitsComment
TimeDGPSUTC
LatitudeDGPSDM.mWGS84
LongitudeDGPSDM.mWGS84
HeadingGyrodeg 
SOGDGPSknotsSpeed over ground
COGDGPSdegCourse over ground
DepthEcho soundermeters200 kHz
Missing or incorrect values are displayed as -999
Navigation data collected by the RV Zeeleeuw from 2002-10-29 09:26:45 to 2002-10-29 16:50:00
Time Latitude Longitude Heading SOG COG Depth
2002-10-29 09:27:46 51°13.689 2°55.773 88 2.4 269.6 12.8
2002-10-29 09:28:46 51°13.741 2°55.778 339 5.9 339.6 9
2002-10-29 09:29:46 51°13.829 2°55.631 331.3 7.8 325.2 10.7
2002-10-29 09:30:46 51°13.948 2°55.54 342 8.1 336.5 9.8
2002-10-29 09:31:46 51°14.071 2°55.459 344.2 7.3 338.4 9.4
2002-10-29 09:32:46 51°14.168 2°55.389 335.3 5.9 331.7 9.6
2002-10-29 09:33:46 51°14.241 2°55.302 319.5 5.3 316 9.9
2002-10-29 09:34:46 51°14.296 2°55.202 312.7 5 307.6 -999
2002-10-29 09:35:46 51°14.367 2°55.064 321.7 8.7 314.2 10.2
2002-10-29 09:36:46 51°14.532 2°54.891 341.2 12.8 331.3 9.1
2002-10-29 09:37:45 51°14.736 2°54.806 354 13.1 345.9 8.8
2002-10-29 09:38:46 51°14.952 2°54.721 353.7 13.2 345.5 8.5
2002-10-29 09:39:46 51°15.163 2°54.643 355.7 12.9 347.4 7.7
2002-10-29 09:40:46 51°15.376 2°54.56 354.8 13.3 346.6 8.4
2002-10-29 09:41:46 51°15.593 2°54.473 354.5 13.5 346 9.1
2002-10-29 09:42:46 51°15.811 2°54.385 354.3 13.7 345.5 10
2002-10-29 09:43:46 51°16.034 2°54.296 354.2 13.9 346.4 10.7
2002-10-29 09:44:46 51°16.206 2°54.332 30.7 8.4 21.3 11.2
2002-10-29 09:45:46 51°16.3 2°54.401 37.7 5.2 27 11.3
2002-10-29 09:46:46 51°16.381 2°54.349 297 6.7 296 11.4
2002-10-29 09:47:46 51°16.322 2°54.24 178.8 6.3 182.5 11.5
2002-10-29 09:48:46 51°16.262 2°54.285 140.5 2.5 145.5 11.4
2002-10-29 09:49:47 51°16.263 2°54.276 119.8 0.6 298.2 -999
2002-10-29 09:50:46 51°16.266 2°54.262 102.2 0.6 293.8 11.4
2002-10-29 09:51:46 51°16.272 2°54.248 89 0.6 304.3 11.4
2002-10-29 09:52:46 51°16.276 2°54.237 75.2 0.4 309.1 11.4
2002-10-29 09:53:46 51°16.287 2°54.238 68.5 0.8 19.5 11.4
2002-10-29 09:54:46 51°16.299 2°54.253 82.3 1 46.1 11.4
2002-10-29 09:55:46 51°16.307 2°54.275 96 1 66.7 11.4
2002-10-29 09:56:45 51°16.309 2°54.298 111 0.8 92.5 11.3
2002-10-29 09:57:46 51°16.306 2°54.32 124 0.8 114.4 11.3
2002-10-29 09:58:46 51°16.299 2°54.335 136.5 0.7 134.1 11.3
2002-10-29 09:59:46 51°16.287 2°54.345 153.2 0.9 166.2 11.3
2002-10-29 10:00:46 51°16.272 2°54.343 176.5 0.8 200.3 11.2
2002-10-29 10:01:45 51°16.263 2°54.325 199.2 0.9 240.7 11.2
2002-10-29 10:02:46 51°16.26 2°54.3 223.7 1 267.7 11.2
2002-10-29 10:03:46 51°16.26 2°54.272 239.3 1.1 272.2 11.3
2002-10-29 10:04:46 51°16.261 2°54.243 248.3 1.1 270.2 11.3
2002-10-29 10:05:46 51°16.263 2°54.214 250.8 1.2 279.7 11.3
2002-10-29 10:06:45 51°16.265 2°54.186 252 1.1 276.2 11.3
2002-10-29 10:07:46 51°16.267 2°54.157 250.3 1.1 273.9 11.3
2002-10-29 10:08:46 51°16.265 2°54.117 257.7 2.9 257.5 11.3
2002-10-29 10:09:45 51°16.32 2°53.903 312.5 12 304.4 11.3
2002-10-29 10:10:46 51°16.457 2°53.637 316.7 13 310.2 11.4
2002-10-29 10:11:46 51°16.593 2°53.369 317.3 13 309.6 11.3
2002-10-29 10:12:46 51°16.731 2°53.105 317 12.9 310.6 10.6
2002-10-29 10:13:46 51°16.871 2°52.851 317.5 12.5 310.5 8.5
2002-10-29 10:14:46 51°17.018 2°52.602 320 13 312.9 9.2
2002-10-29 10:15:46 51°17.179 2°52.379 323.7 12.9 317 9.4
2002-10-29 10:16:46 51°17.349 2°52.173 332.3 12.9 325 9.7
2002-10-29 10:17:46 51°17.518 2°51.964 324.8 12.9 317.9 9.8
2002-10-29 10:18:46 51°17.699 2°51.793 342 12.7 335.2 9.5
2002-10-29 10:19:46 51°17.889 2°51.644 343.8 12.7 335.3 9.6
2002-10-29 10:20:46 51°18.087 2°51.524 347.3 12.8 339.5 10.6
2002-10-29 10:21:46 51°18.258 2°51.417 342.7 9.1 335.1 11.6
2002-10-29 10:22:46 51°18.372 2°51.321 344.3 7.2 334.4 12.3
2002-10-29 10:23:46 51°18.476 2°51.253 346.2 6.5 336.9 13
2002-10-29 10:24:46 51°18.506 2°51.216 302.3 0.4 271.6 13.2
2002-10-29 10:25:46 51°18.509 2°51.198 286.7 0.8 282.8 12.6
2002-10-29 10:26:46 51°18.513 2°51.174 267.7 1 284.5 13.1
2002-10-29 10:27:45 51°18.516 2°51.146 256 1.1 283.4 13
2002-10-29 10:28:46 51°18.519 2°51.117 252.2 1.1 278.6 13
2002-10-29 10:29:46 51°18.521 2°51.088 246.3 1.2 278.3 13.1
2002-10-29 10:30:46 51°18.523 2°51.059 242 1.1 274.6 13.1
2002-10-29 10:31:46 51°18.523 2°51.029 240.5 1.1 269.8 13.1
2002-10-29 10:32:46 51°18.525 2°50.998 239.5 1.2 271.1 13.1
2002-10-29 10:33:46 51°18.523 2°50.964 237.8 1.7 259.1 13.2
2002-10-29 10:34:46 51°18.522 2°50.792 301 9.3 290.3 13.1
2002-10-29 10:35:46 51°18.66 2°50.72 30 9.5 19 13.6
2002-10-29 10:36:46 51°18.722 2°50.938 84.8 9.7 80.3 13.7
2002-10-29 10:37:46 51°18.775 2°51.191 75.8 10.2 70 13.4
2002-10-29 10:38:46 51°18.844 2°51.499 75.3 13 70 13.3
2002-10-29 10:39:46 51°18.917 2°51.828 75.2 13.1 69.8 13
2002-10-29 10:40:46 51°18.989 2°52.158 75.8 13.1 70.6 12.6
2002-10-29 10:41:46 51°19.061 2°52.487 75.3 13.2 70.3 12.3
2002-10-29 10:42:46 51°19.134 2°52.815 76 13.1 70.6 11.8
2002-10-29 10:43:46 51°19.205 2°53.144 75.2 13.1 70 11.5
2002-10-29 10:44:46 51°19.277 2°53.472 76 13 70.7 11.3
2002-10-29 10:45:46 51°19.349 2°53.8 75 13.1 69.8 11.2
2002-10-29 10:46:46 51°19.421 2°54.127 76 13 70.6 11.2
2002-10-29 10:47:46 51°19.493 2°54.455 75.8 12.9 70.7 11.2
2002-10-29 10:48:46 51°19.564 2°54.783 76.3 12.9 71.1 11.2
2002-10-29 10:49:46 51°19.634 2°55.109 75.2 12.9 70.3 11.2
2002-10-29 10:50:46 51°19.708 2°55.433 76 13 69.9 11.1
2002-10-29 10:51:46 51°19.78 2°55.757 75.2 13 69.8 11
2002-10-29 10:52:46 51°19.853 2°56.082 75.2 13 69.8 10.9
2002-10-29 10:53:46 51°19.926 2°56.408 75.5 13 69.7 10.8
2002-10-29 10:54:46 51°20 2°56.732 74.8 13.1 69.6 10.7
2002-10-29 10:55:46 51°20.076 2°57.056 75.8 13 69.6 10.5
2002-10-29 10:56:46 51°20.149 2°57.38 76 12.9 70.2 10.4
2002-10-29 10:57:46 51°20.224 2°57.702 75.8 13 69.2 10.3
2002-10-29 10:58:46 51°20.301 2°58.026 75.7 13.1 68.7 10.2
2002-10-29 10:59:46 51°20.376 2°58.349 75.7 12.9 69.5 10.1
2002-10-29 11:00:46 51°20.451 2°58.67 75.5 12.9 69.1 10
2002-10-29 11:01:46 51°20.525 2°58.992 75.3 12.9 69.5 10
2002-10-29 11:02:46 51°20.6 2°59.311 75.7 12.7 69.4 9.9
2002-10-29 11:03:46 51°20.675 2°59.63 75.3 12.9 69.2 9.9
2002-10-29 11:04:46 51°20.749 2°59.949 75.3 12.8 69.2 9.9
2002-10-29 11:05:46 51°20.824 3°0.266 75.5 12.7 68.7 9.8
2002-10-29 11:06:46 51°20.9 3°0.58 75.3 12.6 69.3 9.8
2002-10-29 11:07:46 51°20.964 3°0.9 78.7 12.7 72.7 9.7
2002-10-29 11:08:46 51°21.026 3°1.22 78.8 12.5 71.6 9.7
2002-10-29 11:09:46 51°21.09 3°1.536 78.5 12.4 72 9.7
2002-10-29 11:10:46 51°21.152 3°1.851 78.7 12.4 72.2 9.8
2002-10-29 11:11:46 51°21.214 3°2.167 79 12.4 72.9 9.8
2002-10-29 11:12:46 51°21.276 3°2.483 78.7 12.5 72.3 9.8
2002-10-29 11:13:46 51°21.339 3°2.8 78.8 12.5 72.5 9.8
2002-10-29 11:14:46 51°21.395 3°3.121 82.5 12.5 75.9 9.8
2002-10-29 11:15:46 51°21.447 3°3.442 81.5 12.5 75.1 9.7
2002-10-29 11:16:46 51°21.497 3°3.763 82.3 12.4 76.4 9.8
2002-10-29 11:17:46 51°21.55 3°4.083 81.5 12.5 75 9.8
2002-10-29 11:18:46 51°21.598 3°4.405 85.5 12.3 78.6 9.7
2002-10-29 11:19:46 51°21.638 3°4.728 85.2 12.3 78.6 9.8
2002-10-29 11:20:46 51°21.676 3°5.049 85.2 12.2 79.3 9.8
2002-10-29 11:21:46 51°21.716 3°5.369 85.3 12.3 79.5 9.8
2002-10-29 11:22:46 51°21.753 3°5.69 85.3 12.2 79.9 9.9
2002-10-29 11:23:46 51°21.792 3°6.01 84.5 12.3 79.1 9.9
2002-10-29 11:24:46 51°21.829 3°6.329 85 12.2 79.7 10
2002-10-29 11:25:46 51°21.866 3°6.649 84.8 12.1 79.7 10.1
2002-10-29 11:26:46 51°21.901 3°6.958 85 11.3 80.2 10.2
2002-10-29 11:27:46 51°21.933 3°7.247 84.8 11 80.1 10.2
2002-10-29 11:28:46 51°21.966 3°7.537 84.7 11 79.2 10.4
2002-10-29 11:29:46 51°21.999 3°7.825 84.2 11 78.5 10.4
2002-10-29 11:30:46 51°22.031 3°8.114 84.8 11.1 80.1 10.4
2002-10-29 11:31:46 51°22.064 3°8.403 84.8 11 80.2 10.6
2002-10-29 11:32:46 51°22.096 3°8.692 84.7 11.1 80.3 10.7
2002-10-29 11:33:46 51°22.127 3°8.984 84.8 11.1 80.5 11
2002-10-29 11:34:46 51°22.16 3°9.276 84.8 11.2 80.5 11.3
2002-10-29 11:35:46 51°22.19 3°9.57 84.5 11.2 80.6 11.7
2002-10-29 11:36:46 51°22.222 3°9.861 84.5 11.1 80 12.2
2002-10-29 11:37:46 51°22.254 3°10.154 83.8 11.3 79.4 12.8
2002-10-29 11:38:46 51°22.286 3°10.449 85 11.3 79.9 14.5
2002-10-29 11:39:46 51°22.32 3°10.744 84.7 11.2 79.9 15.9
2002-10-29 11:40:46 51°22.352 3°11.036 84.8 11.2 80 14.2
2002-10-29 11:41:46 51°22.367 3°11.329 93.5 11.1 90.3 14.2
2002-10-29 11:42:46 51°22.366 3°11.625 94.2 11.2 90.1 14.1
2002-10-29 11:43:46 51°22.367 3°11.924 93.7 11.3 89.5 14
2002-10-29 11:44:46 51°22.385 3°12.222 85.5 11.3 80.6 13.4
2002-10-29 11:45:46 51°22.437 3°12.512 76.8 11.4 70.2 12.8
2002-10-29 11:46:46 51°22.503 3°12.796 75 11.4 68.3 12
2002-10-29 11:47:46 51°22.547 3°12.999 83.2 6.1 74.2 11.6
2002-10-29 11:48:46 51°22.583 3°13.112 73.8 4.2 62.2 11.4
2002-10-29 11:49:46 51°22.602 3°13.19 87.7 2.5 75.2 11.3
2002-10-29 11:50:46 51°22.608 3°13.228 96.2 0.4 47.9 11.2
2002-10-29 11:51:46 51°22.612 3°13.23 100.5 0.2 347.9 11.1
2002-10-29 11:52:46 51°22.617 3°13.225 99.3 0.4 309.4 11.2
2002-10-29 11:53:46 51°22.621 3°13.215 97.5 0.5 297.1 11.2
2002-10-29 11:54:46 51°22.626 3°13.201 94.8 0.6 294.4 11.2
2002-10-29 11:55:47 51°22.632 3°13.183 91.8 0.8 297.7 11.3
2002-10-29 11:56:47 51°22.639 3°13.164 89.2 0.9 297.8 11.2
2002-10-29 11:57:47 51°22.646 3°13.144 86.8 0.8 301.9 11.3
2002-10-29 11:58:47 51°22.653 3°13.131 81.5 0.7 15.5 11.4
2002-10-29 11:59:47 51°22.745 3°13.144 346.3 8.4 338.1 10.9
2002-10-29 12:00:47 51°22.813 3°12.898 290 11.4 283.9 10.9
2002-10-29 12:01:47 51°22.858 3°12.587 289.8 12.2 283.7 11.2
2002-10-29 12:02:47 51°22.918 3°12.279 300 12 292.3 11.1
2002-10-29 12:03:46 51°23.007 3°12 307 11.9 298.2 11.1
2002-10-29 12:04:47 51°23.12 3°11.738 316.5 11.8 307.4 10.8
2002-10-29 12:05:47 51°23.246 3°11.502 321 11.6 311.2 11.2
2002-10-29 12:06:47 51°23.379 3°11.276 324.8 11.6 314.9 11.3
2002-10-29 12:07:47 51°23.512 3°11.052 321.5 11.6 312.1 11.4
2002-10-29 12:08:47 51°23.642 3°10.823 322 11.6 312 11.8
2002-10-29 12:09:47 51°23.771 3°10.59 322 11.7 311.1 12.5
2002-10-29 12:10:47 51°23.9 3°10.356 321.8 11.8 311.1 14.1
2002-10-29 12:11:47 51°24.033 3°10.127 325.3 11.8 314.3 16.5
2002-10-29 12:12:47 51°24.172 3°9.901 325.2 11.9 314.6 16.6
2002-10-29 12:13:47 51°24.311 3°9.675 324.5 12 314.2 15
2002-10-29 12:14:47 51°24.449 3°9.449 325 11.8 314.8 11.2
2002-10-29 12:15:47 51°24.579 3°9.227 317.2 11.4 308.5 9.7
2002-10-29 12:16:47 51°24.692 3°8.986 316.3 11.3 306.9 8.8
2002-10-29 12:17:47 51°24.807 3°8.75 316 11.1 307.7 8.4
2002-10-29 12:18:46 51°24.918 3°8.522 316.3 11 308 7.8
2002-10-29 12:19:47 51°25.032 3°8.288 316.2 10.9 307.4 7
2002-10-29 12:20:47 51°25.142 3°8.063 316.5 10.8 307.6 6.9
2002-10-29 12:21:47 51°25.26 3°7.843 321 10.9 311.9 7.4
2002-10-29 12:22:47 51°25.388 3°7.638 323.7 10.9 314.5 8
2002-10-29 12:23:47 51°25.515 3°7.433 323.7 10.9 314.8 8.6
2002-10-29 12:24:47 51°25.642 3°7.225 323.5 10.8 314.5 9.1
2002-10-29 12:25:47 51°25.769 3°7.019 323.7 10.8 314.3 9.4
2002-10-29 12:26:47 51°25.895 3°6.813 323.7 10.8 314.1 9.4
2002-10-29 12:27:47 51°26.021 3°6.607 324.2 10.8 314.5 9.4
2002-10-29 12:28:47 51°26.153 3°6.412 328.5 10.7 318.8 9.5
2002-10-29 12:29:47 51°26.286 3°6.222 327.5 10.7 318.1 10.2
2002-10-29 12:30:47 51°26.421 3°6.033 328.3 10.7 318.7 10.1
2002-10-29 12:31:46 51°26.552 3°5.848 327.8 10.7 318.5 9.9
2002-10-29 12:32:47 51°26.69 3°5.657 327.3 10.7 318.6 10.1
2002-10-29 12:33:47 51°26.824 3°5.468 327.8 10.7 319.1 11.4
2002-10-29 12:34:47 51°26.943 3°5.293 325.7 8.1 315.3 12.2
2002-10-29 12:35:47 51°27.018 3°5.177 331 5.5 318.2 12.8
2002-10-29 12:36:46 51°27.081 3°5.101 337.5 4.5 324.2 12.9
2002-10-29 12:37:47 51°27.139 3°5.031 335.2 4.2 321.5 13.1
2002-10-29 12:38:47 51°27.192 3°4.962 334.5 4.1 320.7 13.2
2002-10-29 12:39:47 51°27.244 3°4.894 335.3 4 321.1 13.6
2002-10-29 12:40:46 51°27.295 3°4.829 334.8 4 320.2 13.2
2002-10-29 12:41:47 51°27.346 3°4.761 335.3 3.9 320.2 12.9
2002-10-29 12:42:46 51°27.396 3°4.695 334 4 319.5 12
2002-10-29 12:43:47 51°27.447 3°4.625 334.3 3.9 319.8 12.2
2002-10-29 12:44:47 51°27.497 3°4.557 334.8 3.9 320.1 12.5
2002-10-29 12:45:47 51°27.548 3°4.489 334.7 4 318.4 13
2002-10-29 12:46:46 51°27.597 3°4.421 334.5 4 319 13.5
2002-10-29 12:47:47 51°27.697 3°4.289 331.5 10.1 321.1 14.4
2002-10-29 12:48:46 51°27.849 3°4.143 337.3 11.2 327.6 16.2
2002-10-29 12:49:47 51°28.016 3°3.993 340.8 11.3 331.6 17.9
2002-10-29 12:50:47 51°28.177 3°3.843 338.8 10.5 328.7 19.7
2002-10-29 12:51:46 51°28.264 3°3.712 310.5 5.6 300 20.8
2002-10-29 12:52:47 51°28.281 3°3.599 283.2 3.4 272.4 21.4
2002-10-29 12:53:47 51°28.281 3°3.571 273 0.6 268 21.6
2002-10-29 12:54:47 51°28.282 3°3.553 273.8 0.8 270.1 21.6
2002-10-29 12:55:47 51°28.281 3°3.531 272.2 0.9 266.9 21.6
2002-10-29 12:56:47 51°28.281 3°3.505 262.5 1 264.5 21.7
2002-10-29 12:57:47 51°28.279 3°3.477 256.2 1 259.6 21.8
2002-10-29 12:58:47 51°28.277 3°3.449 253.3 1 260.9 21.8
2002-10-29 12:59:47 51°28.273 3°3.422 250 1.1 262.9 21.9
2002-10-29 13:00:47 51°28.264 3°3.384 245.2 3.3 245.6 22
2002-10-29 13:01:47 51°28.19 3°3.13 254 13.3 249.5 22.1
2002-10-29 13:02:47 51°28.102 3°2.774 253.2 14.6 248 22.4
2002-10-29 13:03:46 51°28.028 3°2.407 259.5 14.8 254 23
2002-10-29 13:04:47 51°27.961 3°2.022 259 14.8 253.8 23.1
2002-10-29 13:05:47 51°27.894 3°1.642 260.2 14.7 254 23.1
2002-10-29 13:06:47 51°27.825 3°1.265 260 14.7 254.1 23
2002-10-29 13:07:47 51°27.757 3°0.886 260.2 14.8 253.8 22.3
2002-10-29 13:08:47 51°27.69 3°0.508 259.5 14.8 254 20.8
2002-10-29 13:09:47 51°27.621 3°0.133 258.5 14.7 253.1 19.6
2002-10-29 13:10:47 51°27.553 2°59.759 260 14.5 253.3 18.9
2002-10-29 13:11:47 51°27.488 2°59.388 261.5 14.5 255.6 19.5
2002-10-29 13:12:47 51°27.429 2°59.016 262.8 14.5 256.9 17.6
2002-10-29 13:13:47 51°27.371 2°58.642 262.3 14.5 256.2 15.4
2002-10-29 13:14:47 51°27.315 2°58.264 262.5 14.5 256.7 17.1
2002-10-29 13:15:47 51°27.256 2°57.888 261.8 14.5 256 19.4
2002-10-29 13:16:47 51°27.197 2°57.512 261.2 14.6 255.7 21.6
2002-10-29 13:17:47 51°27.139 2°57.135 261.8 14.6 256.5 23.3
2002-10-29 13:18:47 51°27.082 2°56.757 261.7 14.6 256.2 16
2002-10-29 13:19:47 51°27.029 2°56.377 264.2 14.5 259.3 25.1
2002-10-29 13:20:47 51°26.985 2°55.995 264.2 14.6 258.9 27.3
2002-10-29 13:21:47 51°26.942 2°55.613 265.3 14.6 260 28.5
2002-10-29 13:22:47 51°26.898 2°55.23 265.5 14.7 259.9 25.7
2002-10-29 13:23:47 51°26.851 2°54.845 264.3 14.7 259 25.6
2002-10-29 13:24:47 51°26.804 2°54.46 264.7 14.8 259 22
2002-10-29 13:25:47 51°26.759 2°54.072 265.3 14.7 259.9 29.3
2002-10-29 13:26:47 51°26.714 2°53.687 264.2 14.7 258.9 29.6
2002-10-29 13:27:47 51°26.67 2°53.303 264.7 14.6 259.6 29.9
2002-10-29 13:28:47 51°26.626 2°52.923 264.5 14.6 259.5 28.1
2002-10-29 13:29:47 51°26.581 2°52.539 264.2 14.6 259 26.6
2002-10-29 13:30:47 51°26.537 2°52.158 265.2 14.7 259.1 25.1
2002-10-29 13:31:47 51°26.493 2°51.777 265.2 14.6 259.4 25
2002-10-29 13:32:47 51°26.449 2°51.397 264 14.5 259.2 26.1
2002-10-29 13:33:47 51°26.407 2°51.017 264.8 14.6 259.4 23.6
2002-10-29 13:34:47 51°26.362 2°50.635 265 14.5 259.9 22.8
2002-10-29 13:35:47 51°26.317 2°50.254 265 14.5 259.5 22.9
2002-10-29 13:36:47 51°26.275 2°49.874 264.3 14.6 259.4 22.6
2002-10-29 13:37:47 51°26.224 2°49.495 260.5 14.5 255.7 22.8
2002-10-29 13:38:47 51°26.164 2°49.119 260.8 14.6 255.6 23.1
2002-10-29 13:39:47 51°26.111 2°48.824 256.8 9.1 252.5 23.1
2002-10-29 13:40:47 51°26.058 2°48.669 237.8 5.4 236.6 23
2002-10-29 13:41:47 51°26.02 2°48.569 241.3 3.9 241.4 23
2002-10-29 13:42:47 51°26.017 2°48.541 252 0.5 344.1 -999
2002-10-29 13:43:47 51°26.023 2°48.531 266.2 0.5 286.4 22.5
2002-10-29 13:44:47 51°26.025 2°48.513 275.8 0.7 279.9 22.3
2002-10-29 13:45:47 51°26.028 2°48.493 275.7 0.9 282.9 22.3
2002-10-29 13:46:47 51°26.031 2°48.469 269 1 276.1 22.3
2002-10-29 13:47:47 51°26.034 2°48.442 261.8 1 278.7 22.4
2002-10-29 13:48:47 51°26.037 2°48.416 259.7 1 277.2 22.5
2002-10-29 13:49:47 51°26.038 2°48.388 252.7 1.1 271.1 23
2002-10-29 13:50:47 51°26.039 2°48.361 255.7 1 271.2 23.2
2002-10-29 13:51:47 51°26.012 2°48.187 262.5 9.9 256.8 22.9
2002-10-29 13:52:47 51°25.938 2°47.871 238.5 13.8 237.7 23
2002-10-29 13:53:47 51°25.742 2°47.678 205.3 14.2 203.4 24.2
2002-10-29 13:54:47 51°25.521 2°47.545 206.3 14.1 204 25
2002-10-29 13:55:47 51°25.321 2°47.348 214 14.1 211.3 25
2002-10-29 13:56:47 51°25.115 2°47.163 211.3 14.2 208.5 24.7
2002-10-29 13:57:47 51°24.91 2°46.977 212.2 14.2 209.7 28
2002-10-29 13:58:47 51°24.703 2°46.792 211.8 14.3 209.4 29
2002-10-29 13:59:47 51°24.497 2°46.603 212.7 14.3 210 28
2002-10-29 14:00:47 51°24.29 2°46.411 212.5 14.6 209.7 28
2002-10-29 14:01:47 51°24.083 2°46.219 212.5 14.3 210.2 29.4
2002-10-29 14:02:47 51°23.877 2°46.029 212 14.2 209.5 27.4
2002-10-29 14:03:47 51°23.667 2°45.843 210.7 14.4 208 27.6
2002-10-29 14:04:47 51°23.458 2°45.661 210.5 14.4 207.9 27
2002-10-29 14:05:47 51°23.244 2°45.482 210.7 14.4 207.8 27.4
2002-10-29 14:06:47 51°23.031 2°45.303 210.3 14.4 207.7 27.1
2002-10-29 14:07:47 51°22.818 2°45.129 208.5 14.4 205.8 26.9
2002-10-29 14:08:47 51°22.602 2°44.962 208.3 14.4 205.7 26.7
2002-10-29 14:09:47 51°22.387 2°44.794 208.8 14.4 206 24
2002-10-29 14:10:51 51°22.157 2°44.617 209 14.5 206 23.1
2002-10-29 14:11:53 51°21.948 2°44.412 215.7 14.3 212.7 22.8
2002-10-29 14:12:52 51°21.749 2°44.214 214.7 14.3 211.9 22.4
2002-10-29 14:13:51 51°21.551 2°44.018 214.7 14.3 211.4 22.9
2002-10-29 14:14:51 51°21.349 2°43.818 215.2 14.3 211.9 22.6
2002-10-29 14:15:51 51°21.148 2°43.619 215.8 14.4 212.2 23.1
2002-10-29 14:16:51 51°20.973 2°43.368 233 14.3 228.7 22.9
2002-10-29 14:17:51 51°20.845 2°43.054 247.7 14.1 242.8 22
2002-10-29 14:18:51 51°20.765 2°42.702 260.8 14.1 255.8 21.4
2002-10-29 14:19:51 51°20.724 2°42.335 266.7 14 261.4 18.3
2002-10-29 14:20:51 51°20.698 2°41.965 268.8 14 263 21.4
2002-10-29 14:21:51 51°20.669 2°41.595 268.2 14 263.2 19.6
2002-10-29 14:22:51 51°20.639 2°41.224 267.5 14 262.9 27.4
2002-10-29 14:23:52 51°20.608 2°40.848 266 14 261.3 27
2002-10-29 14:24:50 51°20.576 2°40.49 266.3 14.1 261.5 26.8
2002-10-29 14:25:50 51°20.544 2°40.118 266.7 14.1 261.2 27.1
2002-10-29 14:26:50 51°20.513 2°39.747 266.7 14.1 261.6 26.5
2002-10-29 14:27:55 51°20.476 2°39.346 266.5 14.1 261 25
2002-10-29 14:28:58 51°20.442 2°38.958 266.5 14 262.3 24.7
2002-10-29 14:29:55 51°20.41 2°38.607 266.8 14 261.5 24.7
2002-10-29 14:30:55 51°20.374 2°38.239 265.7 14 260.9 23.6
2002-10-29 14:31:55 51°20.343 2°37.872 268 13.9 263.4 23.7
2002-10-29 14:32:58 51°20.319 2°37.488 269.2 13.8 264.1 23.1
2002-10-29 14:33:57 51°20.3 2°37.126 270.3 14 265.2 23.2
2002-10-29 14:34:57 51°20.28 2°36.757 269.8 14 265.2 22.3
2002-10-29 14:35:58 51°20.26 2°36.381 269.7 14 264.8 20.9
2002-10-29 14:36:58 51°20.239 2°36.016 270 13.8 265.2 19.5
2002-10-29 14:37:59 51°20.218 2°35.643 269.7 13.9 264.8 17.9
2002-10-29 14:38:58 51°20.197 2°35.282 269.8 13.8 265 18.7
2002-10-29 14:39:59 51°20.18 2°34.912 270.5 13.8 266.1 25
2002-10-29 14:40:59 51°20.163 2°34.547 269.8 13.8 265.4 30
2002-10-29 14:41:58 51°20.145 2°34.184 268.8 14.1 264.7 31.8
2002-10-29 14:42:59 51°20.125 2°33.807 270 14 265.4 33.1
2002-10-29 14:43:58 51°20.106 2°33.445 269.7 13.8 265.4 31.3
2002-10-29 14:44:58 51°20.087 2°33.079 269.3 13.8 264.7 31.4
2002-10-29 14:45:59 51°20.067 2°32.705 270.3 13.8 265.4 31
2002-10-29 14:46:58 51°20.051 2°32.345 271.8 13.8 266.7 30.7
2002-10-29 14:47:59 51°20.04 2°31.968 272.2 13.9 267.8 30.9
2002-10-29 14:48:59 51°20.03 2°31.6 272 13.8 267.4 30.2
2002-10-29 14:49:59 51°20.02 2°31.238 272.5 13.6 267.6 23.8
2002-10-29 14:50:59 51°20.009 2°30.876 270.8 13.8 267 18.7
2002-10-29 14:52:02 51°20.013 2°30.503 280.8 13.1 275.5 14.7
2002-10-29 14:53:07 51°20.034 2°30.221 275 7.5 272.1 14.5
2002-10-29 14:54:10 51°20.048 2°30.067 276.3 4.2 278.5 13.2
2002-10-29 14:55:08 51°20.055 2°29.994 274.2 2.2 286.1 15.4
2002-10-29 14:56:10 51°20.062 2°29.95 268.5 1.4 286.2 12.8
2002-10-29 14:57:14 51°20.068 2°29.924 266.8 0.8 301.4 15.5
2002-10-29 14:58:14 51°20.08 2°29.911 269.2 0.8 332.3 17.9
2002-10-29 14:59:14 51°20.092 2°29.903 269.2 0.8 341.5 18.7
2002-10-29 15:00:14 51°20.105 2°29.899 270.3 0.8 352.2 20.7
2002-10-29 15:01:14 51°20.118 2°29.895 271.8 0.9 352.6 21.7
2002-10-29 15:02:14 51°20.132 2°29.892 272.3 0.8 350.1 24.4
2002-10-29 15:03:15 51°20.146 2°29.889 269 0.8 350.9 24
2002-10-29 15:04:14 51°20.133 2°29.786 245.2 6.8 245.5 28.2
2002-10-29 15:05:14 51°20.012 2°29.733 166.8 10 162.8 25.5
2002-10-29 15:06:14 51°19.843 2°29.936 148.7 13.8 141.1 14.6
2002-10-29 15:07:14 51°19.663 2°30.162 149.2 13.6 141.1 14.7
2002-10-29 15:08:14 51°19.483 2°30.392 146.3 13.8 139.9 18.4
2002-10-29 15:09:14 51°19.309 2°30.628 147 13.8 140.6 23.9
2002-10-29 15:10:14 51°19.137 2°30.864 143.2 13.7 137.3 30.3
2002-10-29 15:11:14 51°18.972 2°31.116 142.8 13.7 135.9 30.7
2002-10-29 15:12:14 51°18.808 2°31.367 142.3 13.7 136.2 31.6
2002-10-29 15:13:14 51°18.643 2°31.616 142.2 13.6 136.1 30.6
2002-10-29 15:14:14 51°18.476 2°31.864 142.8 13.7 137.1 30.5
2002-10-29 15:15:14 51°18.308 2°32.112 142.3 13.7 137.5 28.6
2002-10-29 15:16:14 51°18.143 2°32.363 142 13.7 136.1 27
2002-10-29 15:17:14 51°17.977 2°32.614 142.8 13.8 136.7 23.4
2002-10-29 15:18:14 51°17.812 2°32.869 142.5 13.9 135.9 25
2002-10-29 15:19:14 51°17.646 2°33.124 142.7 13.8 135.7 27.5
2002-10-29 15:20:19 51°17.467 2°33.397 143.2 13.7 136.4 27.8
2002-10-29 15:21:20 51°17.301 2°33.654 143 13.7 135.6 25.5
2002-10-29 15:22:18 51°17.142 2°33.899 142.3 13.8 136 23.7
2002-10-29 15:23:21 51°16.97 2°34.167 142.8 13.7 135.6 11.8
2002-10-29 15:24:19 51°16.811 2°34.419 143 14.1 135.6 11.4
2002-10-29 15:25:19 51°16.643 2°34.679 143.2 14 135.7 12.7
2002-10-29 15:26:19 51°16.475 2°34.941 143 13.9 136 18.3
2002-10-29 15:27:19 51°16.31 2°35.201 142.5 13.8 135.1 26.5
2002-10-29 15:28:21 51°16.14 2°35.461 143.2 13.7 136.2 27.7
2002-10-29 15:29:19 51°15.986 2°35.713 140.7 13.8 134.9 27.6
2002-10-29 15:30:19 51°15.824 2°35.973 140.7 13.7 135 27.9
2002-10-29 15:31:19 51°15.664 2°36.232 140.8 13.7 134.7 23.5
2002-10-29 15:32:19 51°15.505 2°36.492 140.2 13.7 134.1 16.9
2002-10-29 15:33:21 51°15.347 2°36.774 137.3 13.9 130.6 14.2
2002-10-29 15:34:20 51°15.199 2°37.051 137.2 14 129.5 14.7
2002-10-29 15:35:19 51°15.05 2°37.33 138.3 13.9 130.5 12.5
2002-10-29 15:36:20 51°14.898 2°37.618 138.2 13.8 130.3 12
2002-10-29 15:37:21 51°14.741 2°37.909 138.2 14.2 130.8 14.9
2002-10-29 15:38:20 51°14.586 2°38.177 141.2 13.9 133.4 17.4
2002-10-29 15:39:21 51°14.418 2°38.435 143.8 13.9 137 19.5
2002-10-29 15:40:18 51°14.251 2°38.652 156.7 13.6 149.5 16.4
2002-10-29 15:41:21 51°14.057 2°38.874 146 13.9 139.4 12.9
2002-10-29 15:42:20 51°13.888 2°39.116 144.2 13.9 138 15.7
2002-10-29 15:43:19 51°13.706 2°39.33 153.2 13.9 146.9 15.9
2002-10-29 15:44:19 51°13.514 2°39.532 152.7 13.8 146.1 15.6
2002-10-29 15:45:19 51°13.325 2°39.735 153.2 13.6 146.1 16.7
2002-10-29 15:46:21 51°13.129 2°39.946 153 13.6 146 14.9
2002-10-29 15:47:19 51°12.946 2°40.142 153.5 13.8 146.2 14.7
2002-10-29 15:48:19 51°12.757 2°40.347 152.2 13.6 146 14.1
2002-10-29 15:49:19 51°12.568 2°40.549 152.7 13.6 146 13.4
2002-10-29 15:50:19 51°12.381 2°40.755 152 13.6 144.5 12.2
2002-10-29 15:51:19 51°12.194 2°40.963 152.2 13.5 144.9 10.8
2002-10-29 15:52:21 51°12.001 2°41.177 152.2 13.7 144.9 9.6
2002-10-29 15:53:20 51°11.817 2°41.383 151.8 14.2 144.8 16.1
2002-10-29 15:54:19 51°11.632 2°41.594 151.8 13.8 144.3 14.9
2002-10-29 15:55:19 51°11.455 2°41.798 147.8 11.7 139.9 13
2002-10-29 15:56:20 51°11.338 2°41.963 153.7 7.3 140.1 13.5
2002-10-29 15:57:21 51°11.265 2°42.052 166.5 4.3 145.4 13.9
2002-10-29 15:58:21 51°11.232 2°42.095 185.2 1.2 103.2 13.9
2002-10-29 15:59:22 51°11.241 2°42.127 185.7 1.3 64 -999
2002-10-29 16:00:21 51°11.252 2°42.158 176.8 1.4 58.1 14
2002-10-29 16:01:21 51°11.267 2°42.189 161.7 1.5 50.4 13.8
2002-10-29 16:02:21 51°11.283 2°42.219 146.3 1.5 46.4 13.6
2002-10-29 16:03:18 51°11.299 2°42.245 131.3 1.4 47.5 13.7
2002-10-29 16:04:18 51°11.314 2°42.272 117.8 1.4 50.8 13.8
2002-10-29 16:05:21 51°11.328 2°42.302 101.5 1.4 50.9 13.8
2002-10-29 16:06:21 51°11.342 2°42.332 90.3 1.4 55.7 13.7
2002-10-29 16:07:21 51°11.356 2°42.362 85.7 1.4 54.8 13.6
2002-10-29 16:08:21 51°11.37 2°42.392 86 1.5 54.2 13.6
2002-10-29 16:09:19 51°11.384 2°42.425 89.3 1.5 51.9 13.7
2002-10-29 16:10:21 51°11.399 2°42.511 87.5 7.4 81.5 13.5
2002-10-29 16:11:21 51°11.448 2°42.841 78.5 14.4 75.1 13.3
2002-10-29 16:12:20 51°11.502 2°43.216 82.5 14.9 79 13.4
2002-10-29 16:13:21 51°11.551 2°43.609 82.7 14.9 78.7 13.8
2002-10-29 16:14:21 51°11.599 2°43.998 82.5 15 78.7 14.1
2002-10-29 16:15:20 51°11.648 2°44.381 82.2 15 77.9 14.3
2002-10-29 16:16:19 51°11.697 2°44.766 82.5 15.1 78.5 14.6
2002-10-29 16:17:20 51°11.749 2°45.163 83 15.1 78.5 14.8
2002-10-29 16:18:19 51°11.803 2°45.545 79.3 15.1 75.5 14.9
2002-10-29 16:19:20 51°11.869 2°45.938 80.2 15.1 75.2 14.9
2002-10-29 16:20:19 51°11.934 2°46.317 77.5 15.1 73.7 14.8
2002-10-29 16:21:20 51°12.007 2°46.706 77.7 15.1 73.3 14.7
2002-10-29 16:22:19 51°12.079 2°47.082 77.5 15.1 72.9 14.6
2002-10-29 16:23:21 51°12.16 2°47.473 75.8 15 71 14.5
2002-10-29 16:24:21 51°12.25 2°47.845 70.3 15.1 66.2 14.3
2002-10-29 16:25:21 51°12.37 2°48.195 63.8 15.1 59.7 14.2
2002-10-29 16:26:21 51°12.496 2°48.544 64 15.1 59.8 14.1
2002-10-29 16:27:21 51°12.62 2°48.893 65.7 15.1 61.2 13.9
2002-10-29 16:28:21 51°12.74 2°49.246 66.5 15.2 62.1 13.8
2002-10-29 16:29:20 51°12.856 2°49.596 67 15.2 62.3 13.6
2002-10-29 16:30:21 51°12.977 2°49.956 66.5 15.2 61.6 13.5
2002-10-29 16:31:20 51°13.096 2°50.304 66.3 15.2 61.5 13.3
2002-10-29 16:32:21 51°13.216 2°50.665 67.8 15.2 62.6 13.2
2002-10-29 16:33:21 51°13.333 2°51.021 67.7 15.2 62.2 13.1
2002-10-29 16:34:21 51°13.451 2°51.377 67.5 15.2 61.6 13
2002-10-29 16:35:21 51°13.569 2°51.734 67.5 15.2 61.7 12.8
2002-10-29 16:36:20 51°13.686 2°52.084 67.7 15.2 62 12.7
2002-10-29 16:37:21 51°13.807 2°52.446 67.8 15.1 61.8 12.7
2002-10-29 16:38:21 51°13.927 2°52.799 67.2 15.2 61.3 12.4
2002-10-29 16:39:21 51°14.048 2°53.151 67.8 15.1 61.5 12
2002-10-29 16:40:21 51°14.164 2°53.507 70.2 15.1 63.6 11.7
2002-10-29 16:41:20 51°14.244 2°53.879 83.2 14.9 75.5 11.2
2002-10-29 16:42:20 51°14.296 2°54.267 87 14.9 79.4 11.1
2002-10-29 16:43:21 51°14.339 2°54.655 85.3 14.7 77.8 11
2002-10-29 16:44:21 51°14.352 2°55.043 109 14.4 99.1 12.3
2002-10-29 16:45:20 51°14.244 2°55.3 137.5 10.1 132.2 12.3
2002-10-29 16:46:20 51°14.136 2°55.42 158.3 6.8 152.7 12
2002-10-29 16:47:18 51°14.051 2°55.484 162.8 5.3 156.8 12.3
2002-10-29 16:48:19 51°13.973 2°55.536 163.5 4.9 157.4 12.4
2002-10-29 16:49:19 51°13.9 2°55.585 162.7 4.7 157.1 13